sensor_id;sensor_type;location;lat;lon;timestamp;temperature;humidity
20418;DHT22;10368;51.436;6.774;2022-10-31T00:50:11;15.90;99.90
20418;DHT22;10368;51.436;6.774;2022-10-31T00:52:40;16.00;99.90
20418;DHT22;10368;51.436;6.774;2022-10-31T00:55:10;15.80;99.90
20418;DHT22;10368;51.436;6.774;2022-10-31T00:57:37;15.80;99.90
20418;DHT22;10368;51.436;6.774;2022-10-31T01:54:19;15.70;99.90
20418;DHT22;10368;51.436;6.774;2022-10-31T01:56:50;15.10;99.90
20418;DHT22;10368;51.436;6.774;2022-10-31T01:59:19;15.00;99.90
20418;DHT22;10368;51.436;6.774;2022-10-31T02:01:47;15.10;99.90
20418;DHT22;10368;51.436;6.774;2022-10-31T02:04:17;15.10;99.90
20418;DHT22;10368;51.436;6.774;2022-10-31T02:06:49;15.10;99.90
20418;DHT22;10368;51.436;6.774;2022-10-31T02:09:19;15.00;99.90
20418;DHT22;10368;51.436;6.774;2022-10-31T02:11:55;15.20;99.90
20418;DHT22;10368;51.436;6.774;2022-10-31T02:14:24;15.10;99.90
20418;DHT22;10368;51.436;6.774;2022-10-31T02:16:51;15.20;99.90
20418;DHT22;10368;51.436;6.774;2022-10-31T02:20:00;15.20;99.90
20418;DHT22;10368;51.436;6.774;2022-10-31T02:22:40;15.10;99.90
20418;DHT22;10368;51.436;6.774;2022-10-31T02:25:21;15.10;99.90
20418;DHT22;10368;51.436;6.774;2022-10-31T02:30:55;14.90;99.90
20418;DHT22;10368;51.436;6.774;2022-10-31T02:59:36;14.80;99.90
20418;DHT22;10368;51.436;6.774;2022-10-31T03:07:56;14.40;99.90
20418;DHT22;10368;51.436;6.774;2022-10-31T03:13:02;14.40;99.90
20418;DHT22;10368;51.436;6.774;2022-10-31T03:15:34;14.40;99.90
20418;DHT22;10368;51.436;6.774;2022-10-31T03:18:09;14.40;99.90
20418;DHT22;10368;51.436;6.774;2022-10-31T03:20:41;14.40;99.90
20418;DHT22;10368;51.436;6.774;2022-10-31T03:23:14;14.40;99.90
20418;DHT22;10368;51.436;6.774;2022-10-31T03:25:45;14.40;99.90
20418;DHT22;10368;51.436;6.774;2022-10-31T03:28:16;14.40;99.90
20418;DHT22;10368;51.436;6.774;2022-10-31T03:30:51;14.40;99.90
20418;DHT22;10368;51.436;6.774;2022-10-31T03:33:23;14.30;99.90
20418;DHT22;10368;51.436;6.774;2022-10-31T03:35:53;14.30;99.90
20418;DHT22;10368;51.436;6.774;2022-10-31T03:38:22;14.30;99.90
20418;DHT22;10368;51.436;6.774;2022-10-31T03:40:51;14.30;99.90
20418;DHT22;10368;51.436;6.774;2022-10-31T06:29:20;14.20;99.90
20418;DHT22;10368;51.436;6.774;2022-10-31T06:31:47;13.50;99.90
20418;DHT22;10368;51.436;6.774;2022-10-31T06:34:14;13.40;99.90
20418;DHT22;10368;51.436;6.774;2022-10-31T06:36:41;13.40;99.90
20418;DHT22;10368;51.436;6.774;2022-10-31T06:39:08;13.40;99.90
20418;DHT22;10368;51.436;6.774;2022-10-31T06:41:35;13.40;99.90
20418;DHT22;10368;51.436;6.774;2022-10-31T06:44:03;13.40;99.90
20418;DHT22;10368;51.436;6.774;2022-10-31T06:46:34;13.40;99.90
20418;DHT22;10368;51.436;6.774;2022-10-31T06:49:01;13.50;99.90
20418;DHT22;10368;51.436;6.774;2022-10-31T06:51:28;13.50;99.90
20418;DHT22;10368;51.436;6.774;2022-10-31T06:53:54;13.50;99.90
20418;DHT22;10368;51.436;6.774;2022-10-31T06:56:21;13.50;99.90
20418;DHT22;10368;51.436;6.774;2022-10-31T06:58:48;13.50;99.90
20418;DHT22;10368;51.436;6.774;2022-10-31T07:01:15;13.40;99.90
20418;DHT22;10368;51.436;6.774;2022-10-31T07:03:42;13.50;99.90
20418;DHT22;10368;51.436;6.774;2022-10-31T07:06:09;13.50;99.90
20418;DHT22;10368;51.436;6.774;2022-10-31T07:08:36;13.50;99.90
20418;DHT22;10368;51.436;6.774;2022-10-31T07:11:03;13.60;99.90
20418;DHT22;10368;51.436;6.774;2022-10-31T07:13:30;13.60;99.90
20418;DHT22;10368;51.436;6.774;2022-10-31T07:16:02;13.50;99.90
20418;DHT22;10368;51.436;6.774;2022-10-31T07:18:29;13.40;99.90
20418;DHT22;10368;51.436;6.774;2022-10-31T07:20:56;13.50;99.90
20418;DHT22;10368;51.436;6.774;2022-10-31T07:23:23;13.50;99.90
20418;DHT22;10368;51.436;6.774;2022-10-31T07:25:58;13.60;99.90
20418;DHT22;10368;51.436;6.774;2022-10-31T07:28:26;13.60;99.90
20418;DHT22;10368;51.436;6.774;2022-10-31T07:30:55;13.60;99.90
20418;DHT22;10368;51.436;6.774;2022-10-31T07:33:23;13.50;99.90
20418;DHT22;10368;51.436;6.774;2022-10-31T07:35:50;13.50;99.90
20418;DHT22;10368;51.436;6.774;2022-10-31T07:38:16;13.50;99.90
20418;DHT22;10368;51.436;6.774;2022-10-31T07:40:43;13.60;99.90
20418;DHT22;10368;51.436;6.774;2022-10-31T07:43:11;13.60;99.90
20418;DHT22;10368;51.436;6.774;2022-10-31T07:45:40;13.60;99.90
20418;DHT22;10368;51.436;6.774;2022-10-31T07:48:07;13.60;99.90
20418;DHT22;10368;51.436;6.774;2022-10-31T07:50:34;13.70;99.90
20418;DHT22;10368;51.436;6.774;2022-10-31T07:53:06;13.80;99.90
20418;DHT22;10368;51.436;6.774;2022-10-31T07:55:34;13.90;99.90
20418;DHT22;10368;51.436;6.774;2022-10-31T08:00:33;13.90;99.90
20418;DHT22;10368;51.436;6.774;2022-10-31T08:03:01;13.90;99.90
20418;DHT22;10368;51.436;6.774;2022-10-31T08:05:30;14.00;99.90
20418;DHT22;10368;51.436;6.774;2022-10-31T08:07:57;14.00;99.90
20418;DHT22;10368;51.436;6.774;2022-10-31T08:10:25;13.90;99.90
20418;DHT22;10368;51.436;6.774;2022-10-31T08:13:10;13.90;99.90
20418;DHT22;10368;51.436;6.774;2022-10-31T08:15:37;13.90;99.90
20418;DHT22;10368;51.436;6.774;2022-10-31T08:18:11;13.90;99.90
20418;DHT22;10368;51.436;6.774;2022-10-31T08:20:39;14.00;99.90
20418;DHT22;10368;51.436;6.774;2022-10-31T08:23:07;14.00;99.90
20418;DHT22;10368;51.436;6.774;2022-10-31T08:25:35;14.10;99.90
20418;DHT22;10368;51.436;6.774;2022-10-31T08:28:05;14.20;99.90
20418;DHT22;10368;51.436;6.774;2022-10-31T08:30:34;14.30;99.90
20418;DHT22;10368;51.436;6.774;2022-10-31T08:33:09;14.30;99.90
20418;DHT22;10368;51.436;6.774;2022-10-31T08:35:37;14.30;99.90
20418;DHT22;10368;51.436;6.774;2022-10-31T08:38:04;14.30;99.90
20418;DHT22;10368;51.436;6.774;2022-10-31T08:40:32;14.40;99.90
20418;DHT22;10368;51.436;6.774;2022-10-31T08:43:01;14.40;99.90
20418;DHT22;10368;51.436;6.774;2022-10-31T08:45:30;14.50;99.90
20418;DHT22;10368;51.436;6.774;2022-10-31T08:48:02;14.50;99.90
20418;DHT22;10368;51.436;6.774;2022-10-31T08:50:33;14.50;99.90
20418;DHT22;10368;51.436;6.774;2022-10-31T08:55:33;14.70;99.90
20418;DHT22;10368;51.436;6.774;2022-10-31T08:58:02;14.70;99.90
20418;DHT22;10368;51.436;6.774;2022-10-31T09:00:29;14.70;99.90
20418;DHT22;10368;51.436;6.774;2022-10-31T09:03:02;14.80;99.90
20418;DHT22;10368;51.436;6.774;2022-10-31T09:05:57;14.90;99.90
20418;DHT22;10368;51.436;6.774;2022-10-31T09:09:03;14.90;99.90
20418;DHT22;10368;51.436;6.774;2022-10-31T09:12:14;14.90;99.90
20418;DHT22;10368;51.436;6.774;2022-10-31T09:15:01;15.00;99.90
20418;DHT22;10368;51.436;6.774;2022-10-31T09:17:28;15.10;99.90
20418;DHT22;10368;51.436;6.774;2022-10-31T09:19:55;15.10;99.90
20418;DHT22;10368;51.436;6.774;2022-10-31T09:22:22;15.10;99.90
20418;DHT22;10368;51.436;6.774;2022-10-31T09:24:49;15.20;99.90
20418;DHT22;10368;51.436;6.774;2022-10-31T09:27:16;15.20;99.90
20418;DHT22;10368;51.436;6.774;2022-10-31T09:29:43;15.20;99.90
20418;DHT22;10368;51.436;6.774;2022-10-31T09:32:10;15.20;99.90
20418;DHT22;10368;51.436;6.774;2022-10-31T09:34:37;15.40;99.90
20418;DHT22;10368;51.436;6.774;2022-10-31T09:37:04;15.40;99.90
20418;DHT22;10368;51.436;6.774;2022-10-31T09:39:31;15.40;99.90
20418;DHT22;10368;51.436;6.774;2022-10-31T09:50:29;15.60;99.90
20418;DHT22;10368;51.436;6.774;2022-10-31T09:53:03;15.70;99.90
20418;DHT22;10368;51.436;6.774;2022-10-31T09:55:35;15.70;99.90
20418;DHT22;10368;51.436;6.774;2022-10-31T09:58:03;15.80;99.90
20418;DHT22;10368;51.436;6.774;2022-10-31T10:00:31;15.70;99.90
20418;DHT22;10368;51.436;6.774;2022-10-31T10:06:34;15.80;99.90
20418;DHT22;10368;51.436;6.774;2022-10-31T10:08:41;16.00;99.90
20418;DHT22;10368;51.436;6.774;2022-10-31T10:30:28;16.70;99.90
20418;DHT22;10368;51.436;6.774;2022-10-31T10:32:59;16.90;99.90
20418;DHT22;10368;51.436;6.774;2022-10-31T10:35:32;17.00;99.90
20418;DHT22;10368;51.436;6.774;2022-10-31T10:40:37;17.30;99.90
20418;DHT22;10368;51.436;6.774;2022-10-31T12:48:10;20.20;99.90
20418;DHT22;10368;51.436;6.774;2022-10-31T12:56:10;20.70;99.90
20418;DHT22;10368;51.436;6.774;2022-10-31T13:01:21;20.80;99.90
20418;DHT22;10368;51.436;6.774;2022-10-31T13:06:54;21.20;99.90
20418;DHT22;10368;51.436;6.774;2022-10-31T13:22:26;21.30;99.90
20418;DHT22;10368;51.436;6.774;2022-10-31T13:27:30;21.90;99.90
20418;DHT22;10368;51.436;6.774;2022-10-31T13:30:05;21.60;99.90
20418;DHT22;10368;51.436;6.774;2022-10-31T13:38:17;21.20;99.90
20418;DHT22;10368;51.436;6.774;2022-10-31T13:40:49;20.90;99.90
20418;DHT22;10368;51.436;6.774;2022-10-31T13:49:18;20.60;99.90
20418;DHT22;10368;51.436;6.774;2022-10-31T13:51:48;20.50;99.90
20418;DHT22;10368;51.436;6.774;2022-10-31T13:54:29;20.60;99.90
20418;DHT22;10368;51.436;6.774;2022-10-31T13:56:58;20.70;99.90
20418;DHT22;10368;51.436;6.774;2022-10-31T13:59:29;20.50;99.90
20418;DHT22;10368;51.436;6.774;2022-10-31T14:02:01;20.70;99.90
20418;DHT22;10368;51.436;6.774;2022-10-31T14:04:43;20.70;99.90
20418;DHT22;10368;51.436;6.774;2022-10-31T14:07:16;20.60;99.90
20418;DHT22;10368;51.436;6.774;2022-10-31T14:09:54;20.50;99.90
20418;DHT22;10368;51.436;6.774;2022-10-31T14:12:36;20.20;99.90
20418;DHT22;10368;51.436;6.774;2022-10-31T14:15:11;20.20;99.90
20418;DHT22;10368;51.436;6.774;2022-10-31T14:18:03;20.30;99.90
20418;DHT22;10368;51.436;6.774;2022-10-31T14:23:32;20.30;99.90
20418;DHT22;10368;51.436;6.774;2022-10-31T14:28:50;20.10;99.90
20418;DHT22;10368;51.436;6.774;2022-10-31T14:31:38;20.10;99.90
20418;DHT22;10368;51.436;6.774;2022-10-31T14:37:13;20.10;99.90
20418;DHT22;10368;51.436;6.774;2022-10-31T14:45:17;20.10;99.90
20418;DHT22;10368;51.436;6.774;2022-10-31T14:50:54;19.90;99.90
20418;DHT22;10368;51.436;6.774;2022-10-31T14:53:31;19.90;99.90
20418;DHT22;10368;51.436;6.774;2022-10-31T14:56:00;19.90;99.90
20418;DHT22;10368;51.436;6.774;2022-10-31T14:58:41;19.80;99.90
20418;DHT22;10368;51.436;6.774;2022-10-31T15:01:26;19.70;99.90
20418;DHT22;10368;51.436;6.774;2022-10-31T15:04:20;19.70;99.90
20418;DHT22;10368;51.436;6.774;2022-10-31T15:07:11;19.80;99.90
20418;DHT22;10368;51.436;6.774;2022-10-31T15:09:40;19.80;99.90
20418;DHT22;10368;51.436;6.774;2022-10-31T15:12:36;19.70;99.90
20418;DHT22;10368;51.436;6.774;2022-10-31T15:15:22;19.70;99.90
20418;DHT22;10368;51.436;6.774;2022-10-31T15:17:58;19.60;99.90
20418;DHT22;10368;51.436;6.774;2022-10-31T15:20:28;19.70;99.90
20418;DHT22;10368;51.436;6.774;2022-10-31T15:22:57;19.60;99.90
20418;DHT22;10368;51.436;6.774;2022-10-31T15:25:27;19.50;99.90
20418;DHT22;10368;51.436;6.774;2022-10-31T15:27:54;19.60;99.90
20418;DHT22;10368;51.436;6.774;2022-10-31T15:32:53;19.60;99.90
20418;DHT22;10368;51.436;6.774;2022-10-31T15:35:29;19.40;99.90
20418;DHT22;10368;51.436;6.774;2022-10-31T15:37:58;19.40;99.90
20418;DHT22;10368;51.436;6.774;2022-10-31T15:40:26;19.20;99.90
20418;DHT22;10368;51.436;6.774;2022-10-31T15:43:03;19.20;99.90
20418;DHT22;10368;51.436;6.774;2022-10-31T15:45:31;19.10;99.90
20418;DHT22;10368;51.436;6.774;2022-10-31T15:48:03;19.20;99.90
20418;DHT22;10368;51.436;6.774;2022-10-31T15:50:44;19.20;99.90
20418;DHT22;10368;51.436;6.774;2022-10-31T15:53:21;18.90;99.90
20418;DHT22;10368;51.436;6.774;2022-10-31T15:55:55;18.90;99.90
20418;DHT22;10368;51.436;6.774;2022-10-31T15:58:24;19.00;99.90
20418;DHT22;10368;51.436;6.774;2022-10-31T16:01:04;18.90;99.90
20418;DHT22;10368;51.436;6.774;2022-10-31T16:03:33;18.80;99.90
20418;DHT22;10368;51.436;6.774;2022-10-31T16:06:03;18.70;99.90
20418;DHT22;10368;51.436;6.774;2022-10-31T16:13:28;18.70;99.90
20418;DHT22;10368;51.436;6.774;2022-10-31T16:15:59;18.60;99.90
20418;DHT22;10368;51.436;6.774;2022-10-31T16:18:47;18.50;99.90
20418;DHT22;10368;51.436;6.774;2022-10-31T16:21:15;18.40;99.90
20418;DHT22;10368;51.436;6.774;2022-10-31T16:23:48;18.40;99.90
20418;DHT22;10368;51.436;6.774;2022-10-31T16:26:20;18.50;99.90
20418;DHT22;10368;51.436;6.774;2022-10-31T16:28:53;18.30;99.90
20418;DHT22;10368;51.436;6.774;2022-10-31T16:31:39;18.40;99.90
20418;DHT22;10368;51.436;6.774;2022-10-31T16:34:20;18.30;99.90
20418;DHT22;10368;51.436;6.774;2022-10-31T16:36:52;18.30;99.90
20418;DHT22;10368;51.436;6.774;2022-10-31T16:39:19;18.30;99.90
20418;DHT22;10368;51.436;6.774;2022-10-31T16:41:48;18.30;99.90
20418;DHT22;10368;51.436;6.774;2022-10-31T16:44:26;18.20;99.90
20418;DHT22;10368;51.436;6.774;2022-10-31T16:47:09;18.40;99.90
20418;DHT22;10368;51.436;6.774;2022-10-31T16:49:38;18.30;99.90
20418;DHT22;10368;51.436;6.774;2022-10-31T16:52:05;18.30;99.90
20418;DHT22;10368;51.436;6.774;2022-10-31T16:54:32;18.30;99.90
20418;DHT22;10368;51.436;6.774;2022-10-31T16:56:59;18.10;99.90
20418;DHT22;10368;51.436;6.774;2022-10-31T16:59:27;18.00;99.90
20418;DHT22;10368;51.436;6.774;2022-10-31T17:01:55;18.00;99.90
20418;DHT22;10368;51.436;6.774;2022-10-31T17:04:22;18.00;99.90
20418;DHT22;10368;51.436;6.774;2022-10-31T17:06:49;17.90;99.90
20418;DHT22;10368;51.436;6.774;2022-10-31T17:09:16;17.90;99.90
20418;DHT22;10368;51.436;6.774;2022-10-31T17:11:49;17.80;99.90
20418;DHT22;10368;51.436;6.774;2022-10-31T17:14:17;17.90;99.90
20418;DHT22;10368;51.436;6.774;2022-10-31T17:16:45;17.70;99.90
20418;DHT22;10368;51.436;6.774;2022-10-31T17:19:12;17.70;99.90
20418;DHT22;10368;51.436;6.774;2022-10-31T17:21:39;17.60;99.90
20418;DHT22;10368;51.436;6.774;2022-10-31T17:24:12;17.70;99.90
20418;DHT22;10368;51.436;6.774;2022-10-31T17:26:40;17.70;99.90
20418;DHT22;10368;51.436;6.774;2022-10-31T17:29:07;17.70;99.90
20418;DHT22;10368;51.436;6.774;2022-10-31T17:31:35;17.60;99.90
20418;DHT22;10368;51.436;6.774;2022-10-31T17:34:02;17.60;99.90
20418;DHT22;10368;51.436;6.774;2022-10-31T17:36:35;17.60;99.90
20418;DHT22;10368;51.436;6.774;2022-10-31T17:39:03;17.60;99.90
20418;DHT22;10368;51.436;6.774;2022-10-31T17:41:32;17.50;99.90
20418;DHT22;10368;51.436;6.774;2022-10-31T17:43:59;17.50;99.90
20418;DHT22;10368;51.436;6.774;2022-10-31T17:46:26;17.50;99.90
20418;DHT22;10368;51.436;6.774;2022-10-31T17:48:53;17.40;99.90
20418;DHT22;10368;51.436;6.774;2022-10-31T17:51:20;17.50;99.90
20418;DHT22;10368;51.436;6.774;2022-10-31T17:53:47;17.60;99.90
20418;DHT22;10368;51.436;6.774;2022-10-31T17:56:14;17.50;99.90
20418;DHT22;10368;51.436;6.774;2022-10-31T17:58:41;17.60;99.90
20418;DHT22;10368;51.436;6.774;2022-10-31T18:01:13;17.60;99.90
20418;DHT22;10368;51.436;6.774;2022-10-31T18:03:40;17.60;99.90
20418;DHT22;10368;51.436;6.774;2022-10-31T18:06:08;17.80;99.90
20418;DHT22;10368;51.436;6.774;2022-10-31T18:08:38;17.80;99.90
20418;DHT22;10368;51.436;6.774;2022-10-31T18:11:26;17.80;99.90
20418;DHT22;10368;51.436;6.774;2022-10-31T18:13:55;17.70;99.90
20418;DHT22;10368;51.436;6.774;2022-10-31T18:16:22;17.80;99.90
20418;DHT22;10368;51.436;6.774;2022-10-31T18:18:56;17.80;99.90
20418;DHT22;10368;51.436;6.774;2022-10-31T18:21:28;17.70;99.90
20418;DHT22;10368;51.436;6.774;2022-10-31T18:23:56;17.80;99.90
20418;DHT22;10368;51.436;6.774;2022-10-31T18:26:25;17.70;99.90
20418;DHT22;10368;51.436;6.774;2022-10-31T18:28:52;17.80;99.90
20418;DHT22;10368;51.436;6.774;2022-10-31T18:31:20;17.70;99.90
20418;DHT22;10368;51.436;6.774;2022-10-31T18:33:47;17.70;99.90
20418;DHT22;10368;51.436;6.774;2022-10-31T18:36:13;17.70;99.90
20418;DHT22;10368;51.436;6.774;2022-10-31T18:38:42;17.80;99.90
20418;DHT22;10368;51.436;6.774;2022-10-31T18:41:11;17.80;99.90
20418;DHT22;10368;51.436;6.774;2022-10-31T18:43:39;17.80;99.90
20418;DHT22;10368;51.436;6.774;2022-10-31T18:46:08;17.70;99.90
20418;DHT22;10368;51.436;6.774;2022-10-31T18:48:38;17.80;99.90
20418;DHT22;10368;51.436;6.774;2022-10-31T18:51:10;17.70;99.90
20418;DHT22;10368;51.436;6.774;2022-10-31T18:53:37;17.80;99.90
20418;DHT22;10368;51.436;6.774;2022-10-31T18:56:08;17.80;99.90
20418;DHT22;10368;51.436;6.774;2022-10-31T18:58:36;17.80;99.90
20418;DHT22;10368;51.436;6.774;2022-10-31T19:01:06;17.80;99.90
20418;DHT22;10368;51.436;6.774;2022-10-31T19:03:34;17.70;99.90
20418;DHT22;10368;51.436;6.774;2022-10-31T19:06:02;17.60;99.90
20418;DHT22;10368;51.436;6.774;2022-10-31T19:08:29;17.70;99.90
20418;DHT22;10368;51.436;6.774;2022-10-31T19:11:17;17.70;99.90
20418;DHT22;10368;51.436;6.774;2022-10-31T19:13:43;17.80;99.90
20418;DHT22;10368;51.436;6.774;2022-10-31T19:16:14;17.70;99.90
20418;DHT22;10368;51.436;6.774;2022-10-31T19:18:42;17.70;99.90
20418;DHT22;10368;51.436;6.774;2022-10-31T19:21:18;17.70;99.90
20418;DHT22;10368;51.436;6.774;2022-10-31T19:23:45;17.60;99.90
20418;DHT22;10368;51.436;6.774;2022-10-31T19:26:15;17.60;99.90
20418;DHT22;10368;51.436;6.774;2022-10-31T19:28:42;17.60;99.90
20418;DHT22;10368;51.436;6.774;2022-10-31T19:31:09;17.70;99.90
20418;DHT22;10368;51.436;6.774;2022-10-31T19:33:36;17.60;99.90
20418;DHT22;10368;51.436;6.774;2022-10-31T19:36:11;17.60;99.90
20418;DHT22;10368;51.436;6.774;2022-10-31T19:38:41;17.60;99.90
20418;DHT22;10368;51.436;6.774;2022-10-31T19:41:11;17.60;99.90
20418;DHT22;10368;51.436;6.774;2022-10-31T19:43:38;17.50;99.90
20418;DHT22;10368;51.436;6.774;2022-10-31T19:46:06;17.50;99.90
20418;DHT22;10368;51.436;6.774;2022-10-31T19:48:48;17.50;99.90
20418;DHT22;10368;51.436;6.774;2022-10-31T19:51:19;17.50;99.90
20418;DHT22;10368;51.436;6.774;2022-10-31T19:53:46;17.50;99.90
20418;DHT22;10368;51.436;6.774;2022-10-31T19:56:17;17.40;99.90
20418;DHT22;10368;51.436;6.774;2022-10-31T19:58:45;17.30;99.90
20418;DHT22;10368;51.436;6.774;2022-10-31T20:01:17;17.30;99.90
20418;DHT22;10368;51.436;6.774;2022-10-31T20:03:45;17.30;99.90
20418;DHT22;10368;51.436;6.774;2022-10-31T20:06:25;17.30;99.90
20418;DHT22;10368;51.436;6.774;2022-10-31T20:08:53;17.30;99.90
20418;DHT22;10368;51.436;6.774;2022-10-31T20:11:23;17.20;99.90
20418;DHT22;10368;51.436;6.774;2022-10-31T20:13:51;17.20;99.90
20418;DHT22;10368;51.436;6.774;2022-10-31T20:16:20;17.20;99.90
20418;DHT22;10368;51.436;6.774;2022-10-31T20:18:47;17.20;99.90
20418;DHT22;10368;51.436;6.774;2022-10-31T20:21:18;17.10;99.90
20418;DHT22;10368;51.436;6.774;2022-10-31T20:23:46;17.10;99.90
20418;DHT22;10368;51.436;6.774;2022-10-31T20:26:18;17.10;99.90
20418;DHT22;10368;51.436;6.774;2022-10-31T20:28:45;17.20;99.90
20418;DHT22;10368;51.436;6.774;2022-10-31T20:31:15;17.10;99.90
20418;DHT22;10368;51.436;6.774;2022-10-31T20:33:43;17.10;99.90
20418;DHT22;10368;51.436;6.774;2022-10-31T20:36:10;17.20;99.90
20418;DHT22;10368;51.436;6.774;2022-10-31T20:38:38;17.10;99.90
20418;DHT22;10368;51.436;6.774;2022-10-31T20:41:07;17.00;99.90
20418;DHT22;10368;51.436;6.774;2022-10-31T20:43:34;17.00;99.90
20418;DHT22;10368;51.436;6.774;2022-10-31T20:46:04;17.10;99.90
20418;DHT22;10368;51.436;6.774;2022-10-31T20:48:32;17.20;99.90
20418;DHT22;10368;51.436;6.774;2022-10-31T20:51:00;17.10;99.90
20418;DHT22;10368;51.436;6.774;2022-10-31T20:53:28;17.20;99.90
20418;DHT22;10368;51.436;6.774;2022-10-31T20:56:11;17.20;99.90
20418;DHT22;10368;51.436;6.774;2022-10-31T20:58:39;17.20;99.90
20418;DHT22;10368;51.436;6.774;2022-10-31T21:01:15;17.30;99.90
20418;DHT22;10368;51.436;6.774;2022-10-31T21:03:43;17.20;99.90
20418;DHT22;10368;51.436;6.774;2022-10-31T21:06:10;17.20;99.90
20418;DHT22;10368;51.436;6.774;2022-10-31T21:08:38;17.20;99.90
20418;DHT22;10368;51.436;6.774;2022-10-31T21:11:08;17.20;99.90
20418;DHT22;10368;51.436;6.774;2022-10-31T21:13:36;17.30;99.90
20418;DHT22;10368;51.436;6.774;2022-10-31T21:16:09;17.20;99.90
20418;DHT22;10368;51.436;6.774;2022-10-31T21:18:37;17.20;99.90
20418;DHT22;10368;51.436;6.774;2022-10-31T21:21:12;17.30;99.90
20418;DHT22;10368;51.436;6.774;2022-10-31T21:23:40;17.30;99.90
20418;DHT22;10368;51.436;6.774;2022-10-31T21:26:18;17.30;99.90
20418;DHT22;10368;51.436;6.774;2022-10-31T21:28:47;17.30;99.90
20418;DHT22;10368;51.436;6.774;2022-10-31T21:31:16;17.40;99.90
20418;DHT22;10368;51.436;6.774;2022-10-31T21:33:43;17.40;99.90
20418;DHT22;10368;51.436;6.774;2022-10-31T21:36:11;17.40;99.90
20418;DHT22;10368;51.436;6.774;2022-10-31T21:38:38;17.40;99.90
20418;DHT22;10368;51.436;6.774;2022-10-31T21:41:08;17.40;99.90
20418;DHT22;10368;51.436;6.774;2022-10-31T21:43:37;17.40;99.90
20418;DHT22;10368;51.436;6.774;2022-10-31T21:46:09;17.40;99.90
20418;DHT22;10368;51.436;6.774;2022-10-31T21:48:38;17.40;99.90
20418;DHT22;10368;51.436;6.774;2022-10-31T21:51:13;17.50;99.90
20418;DHT22;10368;51.436;6.774;2022-10-31T21:53:41;17.40;99.90
20418;DHT22;10368;51.436;6.774;2022-10-31T21:56:27;17.40;99.90
20418;DHT22;10368;51.436;6.774;2022-10-31T21:58:54;17.40;99.90
20418;DHT22;10368;51.436;6.774;2022-10-31T22:01:22;17.30;99.90
20418;DHT22;10368;51.436;6.774;2022-10-31T22:03:50;17.30;99.90
20418;DHT22;10368;51.436;6.774;2022-10-31T22:06:17;17.40;99.90
20418;DHT22;10368;51.436;6.774;2022-10-31T22:08:44;17.30;99.90
20418;DHT22;10368;51.436;6.774;2022-10-31T22:11:13;17.40;99.90
20418;DHT22;10368;51.436;6.774;2022-10-31T22:13:42;17.40;99.90
20418;DHT22;10368;51.436;6.774;2022-10-31T22:16:11;17.40;99.90
20418;DHT22;10368;51.436;6.774;2022-10-31T22:18:39;17.30;99.90
20418;DHT22;10368;51.436;6.774;2022-10-31T22:21:12;17.30;99.90
20418;DHT22;10368;51.436;6.774;2022-10-31T22:23:39;17.30;99.90
20418;DHT22;10368;51.436;6.774;2022-10-31T22:26:14;17.40;99.90
20418;DHT22;10368;51.436;6.774;2022-10-31T22:28:43;17.30;99.90
20418;DHT22;10368;51.436;6.774;2022-10-31T22:31:13;17.30;99.90
20418;DHT22;10368;51.436;6.774;2022-10-31T22:33:40;17.30;99.90
20418;DHT22;10368;51.436;6.774;2022-10-31T22:36:09;17.30;99.90
20418;DHT22;10368;51.436;6.774;2022-10-31T22:38:38;17.40;99.90
20418;DHT22;10368;51.436;6.774;2022-10-31T22:41:07;17.30;99.90
20418;DHT22;10368;51.436;6.774;2022-10-31T22:43:34;17.30;99.90
20418;DHT22;10368;51.436;6.774;2022-10-31T22:46:03;17.30;99.90
20418;DHT22;10368;51.436;6.774;2022-10-31T22:48:37;17.30;99.90
20418;DHT22;10368;51.436;6.774;2022-10-31T22:51:13;17.30;99.90
20418;DHT22;10368;51.436;6.774;2022-10-31T22:53:41;17.30;99.90
20418;DHT22;10368;51.436;6.774;2022-10-31T22:56:11;17.30;99.90
20418;DHT22;10368;51.436;6.774;2022-10-31T22:58:38;17.30;99.90
20418;DHT22;10368;51.436;6.774;2022-10-31T23:01:13;17.30;99.90
20418;DHT22;10368;51.436;6.774;2022-10-31T23:03:41;17.30;99.90
20418;DHT22;10368;51.436;6.774;2022-10-31T23:06:18;17.20;99.90
20418;DHT22;10368;51.436;6.774;2022-10-31T23:08:45;17.30;99.90
20418;DHT22;10368;51.436;6.774;2022-10-31T23:13:47;17.30;99.90
20418;DHT22;10368;51.436;6.774;2022-10-31T23:16:55;17.30;99.90
20418;DHT22;10368;51.436;6.774;2022-10-31T23:19:23;17.30;99.90
20418;DHT22;10368;51.436;6.774;2022-10-31T23:21:53;17.30;99.90
20418;DHT22;10368;51.436;6.774;2022-10-31T23:24:33;17.30;99.90
20418;DHT22;10368;51.436;6.774;2022-10-31T23:32:12;17.30;99.90
20418;DHT22;10368;51.436;6.774;2022-10-31T23:34:40;17.40;99.90
20418;DHT22;10368;51.436;6.774;2022-10-31T23:37:07;17.40;99.90
20418;DHT22;10368;51.436;6.774;2022-10-31T23:39:34;17.40;99.90
20418;DHT22;10368;51.436;6.774;2022-10-31T23:42:02;17.40;99.90
20418;DHT22;10368;51.436;6.774;2022-10-31T23:44:29;17.40;99.90
20418;DHT22;10368;51.436;6.774;2022-10-31T23:46:55;17.40;99.90
20418;DHT22;10368;51.436;6.774;2022-10-31T23:49:22;17.40;99.90
20418;DHT22;10368;51.436;6.774;2022-10-31T23:51:49;17.40;99.90
20418;DHT22;10368;51.436;6.774;2022-10-31T23:54:16;17.30;99.90
20418;DHT22;10368;51.436;6.774;2022-10-31T23:56:43;17.30;99.90
20418;DHT22;10368;51.436;6.774;2022-10-31T23:59:10;17.30;99.90
